Time;durP1;ratioP1;P1;durP2;ratioP2;P2;SDS_P1;SDS_P2;PMS_P1;PMS_P2;Temp;Humidity;BMP_temperature;BMP_pressure;BME280_temperature;BME280_humidity;BME280_pressure;Samples;Min_cycle;Max_cycle;Signal;HPM_P1;HPM_P2
2023/01/05 00:06:47;;;;;;;16.60;9.20;;;;;;;10.36;100.00;98961.98;661043;1296;140480;-78
2023/01/05 00:37:12;;;;;;;19.30;7.30;;;;;;;10.58;100.00;98931.79;661445;1302;139133;-78
2023/01/05 00:52:16;;;;;;;13.20;6.00;;;;;;;10.65;100.00;98910.61;661228;1310;139198;-79
2023/01/05 01:07:19;;;;;;;26.30;9.00;;;;;;;10.75;100.00;98894.63;661429;1302;140383;-78
2023/01/05 01:22:22;;;;;;;11.20;5.50;;;;;;;10.79;100.00;98897.38;661218;1310;139245;-78
2023/01/05 01:37:25;;;;;;;11.60;4.70;;;;;;;10.84;100.00;98883.91;661317;1309;139268;-78
2023/01/05 01:52:32;;;;;;;7.20;2.90;;;;;;;10.68;100.00;98881.21;662681;1297;139505;-78
2023/01/05 02:07:43;;;;;;;8.70;4.30;;;;;;;10.55;100.00;98864.97;661280;1310;139685;-78
2023/01/05 02:23:09;;;;;;;11.10;6.30;;;;;;;10.68;100.00;98858.02;662757;1303;140504;-78
2023/01/05 02:38:37;;;;;;;7.60;2.00;;;;;;;10.56;100.00;98842.20;661249;1308;139513;-78
2023/01/05 02:53:49;;;;;;;2.80;1.70;;;;;;;10.39;100.00;98827.02;661580;1309;141011;-78
2023/01/05 03:08:59;;;;;;;3.00;1.10;;;;;;;10.05;100.00;98822.57;661261;1300;138906;-78
2023/01/05 03:39:30;;;;;;;19.20;9.30;;;;;;;9.61;100.00;98806.86;661391;1303;139067;-78
2023/01/05 03:54:35;;;;;;;;;;;;;;;9.54;100.00;98815.43;661669;1295;139213;-77
2023/01/05 04:09:39;;;;;;;2.00;1.10;;;;;;;9.52;100.00;98817.27;661296;1304;126716;-78
2023/01/05 04:24:43;;;;;;;6.40;4.20;;;;;;;9.44;100.00;98807.09;661454;1310;139844;-79
2023/01/05 04:39:47;;;;;;;5.70;3.00;;;;;;;9.47;100.00;98809.88;661123;1309;139684;-77
2023/01/05 04:54:51;;;;;;;5.60;3.50;;;;;;;9.55;100.00;98809.91;661365;1309;138803;-77
2023/01/05 05:09:55;;;;;;;5.50;4.00;;;;;;;9.73;100.00;98806.80;661204;1310;139888;-78
2023/01/05 05:24:58;;;;;;;5.90;3.70;;;;;;;9.86;100.00;98801.58;661366;1298;139063;-79
2023/01/05 05:40:03;;;;;;;3.20;2.80;;;;;;;9.97;100.00;98806.34;660990;1304;139856;-78
2023/01/05 05:55:07;;;;;;;5.40;4.30;;;;;;;9.95;100.00;98809.70;661364;1310;138753;-79
2023/01/05 06:10:10;;;;;;;5.40;3.50;;;;;;;10.05;100.00;98797.05;662888;1295;138951;-79
2023/01/05 06:25:13;;;;;;;9.90;4.20;;;;;;;9.92;100.00;98805.24;661541;1304;139432;-79
2023/01/05 06:40:26;;;;;;;9.60;6.90;;;;;;;9.81;100.00;98830.34;661437;1305;138833;-79
2023/01/05 06:55:29;;;;;;;10.80;4.80;;;;;;;9.70;100.00;98851.79;661704;1295;138374;-79
2023/01/05 07:10:33;;;;;;;33.10;12.70;;;;;;;9.77;100.00;98877.23;661905;1296;138886;-79
2023/01/05 07:25:36;;;;;;;11.90;5.60;;;;;;;9.64;100.00;98904.14;661745;1296;139886;-80
2023/01/05 07:40:39;;;;;;;6.70;2.90;;;;;;;9.57;100.00;98922.62;661685;1303;148428;-80
2023/01/05 07:55:42;;;;;;;43.60;25.80;;;;;;;9.46;100.00;98941.54;661755;1307;139436;-80
2023/01/05 08:10:45;;;;;;;11.00;7.20;;;;;;;9.26;100.00;98966.02;661771;1310;139340;-79
2023/01/05 08:25:49;;;;;;;8.50;4.70;;;;;;;9.28;100.00;98967.34;661503;1310;139357;-79
2023/01/05 08:40:52;;;;;;;36.60;27.40;;;;;;;9.11;100.00;98975.42;661686;1309;139808;-79
2023/01/05 08:55:55;;;;;;;5.00;3.00;;;;;;;9.09;100.00;98987.94;661527;1310;140398;-80
2023/01/05 09:11:08;;;;;;;18.20;8.20;;;;;;;9.14;100.00;98998.23;663071;1302;139527;-80
2023/01/05 09:26:14;;;;;;;16.40;6.90;;;;;;;9.08;100.00;99005.14;661598;1310;138564;-79
2023/01/05 09:41:40;;;;;;;11.70;5.30;;;;;;;9.03;100.00;99000.64;662863;1297;140522;-79
2023/01/05 09:56:46;;;;;;;23.50;6.90;;;;;;;9.03;100.00;98996.71;661404;1296;141039;-80
2023/01/05 10:28:00;;;;;;;22.40;8.00;;;;;;;9.08;100.00;98996.42;661485;1307;138466;-79
2023/01/05 10:44:01;;;;;;;33.10;13.20;;;;;;;9.09;100.00;98991.80;661840;1305;139940;-79
2023/01/05 10:59:10;;;;;;;16.60;7.20;;;;;;;9.09;100.00;98994.02;660194;1310;139210;-79
2023/01/05 11:14:15;;;;;;;359.40;175.20;;;;;;;9.11;100.00;98983.92;661733;1302;138628;-79
2023/01/05 11:29:18;;;;;;;13.80;8.50;;;;;;;9.22;100.00;98986.13;661202;1302;140884;-78
2023/01/05 11:44:30;;;;;;;17.80;9.50;;;;;;;9.11;100.00;98988.29;661493;1302;138678;-78
2023/01/05 11:59:36;;;;;;;43.50;17.50;;;;;;;8.94;100.00;98989.87;663210;1294;139302;-78
2023/01/05 12:15:04;;;;;;;19.20;9.60;;;;;;;8.83;100.00;98987.14;662856;1297;139157;-78
2023/01/05 12:30:22;;;;;;;16.50;6.90;;;;;;;8.79;100.00;98986.66;662951;1303;139381;-78
2023/01/05 12:46:15;;;;;;;18.80;9.70;;;;;;;8.89;100.00;98976.91;661718;1309;139305;-78
2023/01/05 13:01:24;;;;;;;15.40;4.20;;;;;;;8.78;100.00;98973.52;663179;1303;138518;-79
2023/01/05 13:16:44;;;;;;;43.70;13.90;;;;;;;8.93;100.00;98979.11;663130;1295;138687;-78
2023/01/05 13:32:36;;;;;;;91.70;32.50;;;;;;;8.96;100.00;98984.36;661753;1310;139303;-78
2023/01/05 13:48:16;;;;;;;152.50;57.20;;;;;;;8.78;100.00;99025.02;661608;1302;139069;-77
2023/01/05 14:03:31;;;;;;;58.80;22.30;;;;;;;8.70;100.00;99079.59;661922;1303;137995;-77
2023/01/05 14:18:51;;;;;;;13.90;6.20;;;;;;;8.46;100.00;99111.17;663211;1303;140400;-78
2023/01/05 14:34:03;;;;;;;11.00;5.60;;;;;;;8.20;100.00;99150.29;661840;1310;139365;-78
2023/01/05 14:49:18;;;;;;;12.80;6.00;;;;;;;8.08;99.35;99184.84;661754;1295;139600;-78
2023/01/05 15:04:34;;;;;;;26.90;10.40;;;;;;;8.12;99.43;99215.46;661794;1291;139112;-78
2023/01/05 15:19:50;;;;;;;240.00;98.90;;;;;;;7.75;100.00;99243.21;662135;1299;138206;-77
2023/01/05 15:35:02;;;;;;;137.00;52.50;;;;;;;7.59;100.00;99282.02;661893;1298;139550;-79
2023/01/05 15:50:14;;;;;;;77.30;27.20;;;;;;;7.76;100.00;99315.88;661776;1310;139190;-78
2023/01/05 16:05:21;;;;;;;8.70;5.40;;;;;;;7.52;100.00;99380.56;663267;1288;139508;-78
2023/01/05 16:20:25;;;;;;;13.50;6.10;;;;;;;7.13;100.00;99425.73;661891;1304;138737;-78
2023/01/05 16:35:37;;;;;;;40.60;18.40;;;;;;;6.77;100.00;99454.85;663254;1288;139778;-78
2023/01/05 16:50:55;;;;;;;39.90;15.50;;;;;;;6.42;100.00;99502.10;661550;1304;139062;-77
2023/01/05 17:06:00;;;;;;;14.10;7.40;;;;;;;6.05;100.00;99546.82;663370;1291;141530;-79
2023/01/05 17:21:05;;;;;;;62.20;26.10;;;;;;;6.13;100.00;99592.65;661868;1303;138416;-78
2023/01/05 17:36:09;;;;;;;14.40;7.60;;;;;;;5.87;100.00;99650.95;661621;1307;139427;-79
2023/01/05 17:51:12;;;;;;;11.50;5.20;;;;;;;5.88;100.00;99693.92;661724;1304;138640;-79
2023/01/05 18:06:15;;;;;;;6.10;4.90;;;;;;;5.73;100.00;99726.30;661603;1310;138547;-79
2023/01/05 18:21:19;;;;;;;9.30;5.50;;;;;;;5.53;100.00;99774.30;662866;1288;140507;-79
2023/01/05 18:36:22;;;;;;;18.90;10.00;;;;;;;5.59;99.80;99821.39;661225;1310;138916;-79
2023/01/05 18:51:26;;;;;;;16.40;8.00;;;;;;;5.57;99.03;99873.20;661547;1294;140148;-81
2023/01/05 19:06:29;;;;;;;13.90;6.50;;;;;;;5.42;97.44;99921.85;661291;1310;138210;-79
2023/01/05 19:21:38;;;;;;;7.70;4.50;;;;;;;5.31;96.41;99965.12;661178;1301;138156;-79
2023/01/05 19:36:42;;;;;;;14.40;10.20;;;;;;;5.19;95.63;100000.63;660737;1298;3143276;-78
2023/01/05 19:51:54;;;;;;;24.10;13.50;;;;;;;5.17;95.15;100045.02;663127;1288;138692;-78
2023/01/05 20:07:06;;;;;;;23.60;13.70;;;;;;;5.24;94.90;100094.44;661159;1310;138595;-79
2023/01/05 20:22:12;;;;;;;16.60;8.60;;;;;;;5.22;94.54;100126.65;661383;1310;139698;-79
2023/01/05 20:37:22;;;;;;;12.00;5.80;;;;;;;5.05;94.16;100176.67;662754;1287;138641;-79
2023/01/05 20:52:25;;;;;;;18.40;10.20;;;;;;;5.06;94.07;100205.20;662810;1298;138765;-79
2023/01/05 21:07:32;;;;;;;15.50;9.20;;;;;;;4.99;93.82;100244.29;661346;1294;138554;-79
2023/01/05 21:23:00;;;;;;;14.40;7.50;;;;;;;4.91;94.14;100276.02;661871;1296;138393;-81
2023/01/05 21:38:09;;;;;;;11.30;6.40;;;;;;;4.85;94.19;100304.98;661816;1292;139043;-78
2023/01/05 22:08:36;;;;;;;13.80;8.40;;;;;;;4.45;96.08;100377.33;661348;1305;138400;-78
2023/01/05 22:23:40;;;;;;;10.20;6.80;;;;;;;4.47;96.05;100420.98;661091;1301;139324;-79
2023/01/05 22:38:46;;;;;;;11.20;6.20;;;;;;;4.47;95.87;100461.70;663107;1289;138648;-78
2023/01/05 22:53:50;;;;;;;10.70;5.30;;;;;;;4.36;96.04;100498.95;661308;1310;139151;-78
2023/01/05 23:08:54;;;;;;;7.60;4.60;;;;;;;4.31;94.95;100539.00;661224;1304;138946;-78
2023/01/05 23:23:58;;;;;;;8.50;5.40;;;;;;;4.27;94.51;100573.04;660983;1305;139981;-77
2023/01/05 23:39:01;;;;;;;10.60;5.20;;;;;;;4.28;93.33;100582.84;661169;1310;139547;-77
2023/01/05 23:54:05;;;;;;;8.40;6.00;;;;;;;4.23;93.37;100593.98;661215;1303;139059;-77
